Tiempo atmosférico en la estación meteorológica de Álora, Málaga (181 m.)



Fecha
DESCASC
Temp. máxima en grados centígrados (hora)
DESCASC
Temp. mínima en grados centígrados (hora)
DESCASC
Temp. media en grados centígrados
DESCASC
Racha de viento máxima en m/sg (hora)
DESCASC
Velocidad máxima media en intervalos de 10 minutos(hora)
DESCASC
Precipitaciones diarias en mm
DESCASC
Precipitaciones de 00:00 a 06:00 en mm
DESCASC
Precipitaciones de 06:00 a 12:00 en mm
DESCASC
Precipitaciones de 12:00 a 18:00 en mm
DESCASC
Precipitaciones de 18:00 a 24:00 en mm
DESCASC
15-10-2019 23.6 (17:30) 12.8 (00:00) 18.2 8.33 (14:50) 3.89 (14:40) 0 0 0 0 0
20-09-2019 25.7 (13:50) 19.8 (00:00) 22.8 11.94 (15:40) 7.5 (14:40) 0 0 0 0 0
11-10-2019 25.7 (14:00) 19.4 (00:00) 22.6 10 (15:00) 6.11 (15:20) 0 0 0 0 0
10-10-2019 25.9 (14:20) 15.8 (00:00) 20.8 11.39 (13:20) 8.06 (13:40) 0 0 0 0 0
14-10-2019 26.3 (15:20) 16.7 (00:00) 21.5 10.83 (16:50) 5.83 (12:10) 0 0 0 0 0
12-10-2019 26.6 (15:40) 18.2 (00:00) 22.4 9.17 (14:30) 6.11 (15:10) 0 0 0 0 0
08-10-2019 27.1 (17:20) 17.8 (00:00) 22.4 10.83 (13:10) 6.67 (13:10) 0 0 0 0 0
21-09-2019 27.4 (15:10) 20.3 (00:00) 23.8 6.11 (15:10) 4.44 (16:30) 0 0 0 0 0
13-10-2019 28.2 (15:20) 16.2 (00:00) 22.2 8.33 (15:20) 5.56 (13:00) 0 0 0 0 0
17-09-2019 28.6 (16:40) 19.7 (00:00) 24.2 8.33 (12:40) 5.56 (12:40) 0.2 0 0 0.2 0
22-09-2019 29.3 (15:20) 18.1 (00:00) 23.7 10.56 (18:20) 5.28 (23:20) 0 0 0 0 0
26-09-2019 30.1 (16:50) 17.1 (00:00) 23.6 7.78 (13:40) 5.56 (13:40) 0 0 0 0 0
09-10-2019 30.5 (16:20) 15.7 (00:00) 23.1 6.67 (18:10) 4.72 (17:10) 0 0 0 0 0
19-09-2019 30.6 (16:10) 18.4 (00:00) 24.5 7.78 (15:20) 5.28 (15:00) 0 0 0 0 0
23-09-2019 30.7 (15:40) 18.3 (00:00) 24.5 9.17 (00:40) 5.28 (07:00) 0 0 0 0 0
28-09-2019 30.9 (16:30) 17 (00:00) 23.9 8.33 (15:50) 6.39 (17:10) 0 0 0 0 0
16-09-2019 30.9 (15:10) 19.9 (00:00) 25.4 7.5 (16:20) 5 (19:10) 0.6 0.4 0.2 0 0
29-09-2019 31.2 (16:30) 16.4 (00:00) 23.8 6.67 (13:20) 4.72 (13:10) 0 0 0 0 0
18-09-2019 31.2 (15:30) 18.1 (00:00) 24.7 6.39 (18:10) 3.89 (16:20) 0 0 0 0 0
02-10-2019 31.2 (16:00) 19.4 (00:00) 25.3 11.11 (15:30) 5.56 (00:30) 0 0 0 0 0
27-09-2019 31.5 (16:40) 16.9 (00:00) 24.2 6.39 (16:50) 4.72 (17:40) 0 0 0 0 0
03-10-2019 31.6 (15:50) 17.6 (00:00) 24.6 10 (21:20) 5 (21:20) 0 0 0 0 0
04-10-2019 32.2 (15:40) 17.8 (00:00) 25 7.5 (07:20) 5.28 (16:50) 0 0 0 0 0
25-09-2019 33.5 (16:40) 21 (00:00) 27.3 9.44 (12:40) 6.11 (12:30) 0 0 0 0 0
05-10-2019 33.9 (16:40) 18.2 (00:00) 26.1 8.33 (17:40) 4.72 (17:30) 0 0 0 0 0
01-10-2019 34.2 (15:30) 17.9 (00:00) 26.1 11.67 (16:30) 7.22 (16:30) 0 0 0 0 0
30-09-2019 34.7 (15:40) 17.8 (00:00) 26.3 7.22 (17:10) 6.11 (17:10) 0 0 0 0 0
06-10-2019 34.8 (16:50) 19.4 (00:00) 27.1 8.06 (13:40) 4.72 (13:30) 0 0 0 0 0
24-09-2019 35 (17:20) 15.7 (00:00) 25.3 8.06 (13:50) 4.44 (15:50) 0 0 0 0 0
07-10-2019 36.4 (17:20) 19.4 (00:00) 27.9 9.72 (14:30) 5.56 (18:20) 0 0 0 0 0

Gráficas

Temp. máximas Temp. mínimas Temp. medias Precipitaciones Rachas de viento máximas Velocidades máximas media en intervalos de 10 minutos

Datos horarios

Fecha y hora oficial Temperatura (ºC) Velocidad del viento (km/h) Dirección del viento Racha (km/h) Dirección de racha Precipitación (mm) Presión (hPa) Tendencia (hPa) Humedad (%)
2019-10-15 23:00:00 15.7 10 Norte 19 Oeste 0 -- -- 47
2019-10-15 22:00:00 16.5 9 Noroeste 19 Oeste 0 -- -- 46
2019-10-15 21:00:00 17.5 7 Noroeste 16 Oeste 0 -- -- 42
2019-10-15 20:00:00 18.9 5 Noroeste 22 Noroeste 0 -- -- 38
2019-10-15 19:00:00 21.7 9 Noroeste 22 Noroeste 0 -- -- 33
2019-10-15 18:00:00 23.1 8 Noroeste 24 Oeste 0 -- -- 31
2019-10-15 17:00:00 23.1 6 Noroeste 22 Oeste 0 -- -- 31
2019-10-15 16:00:00 22 11 Noroeste 26 Noroeste 0 -- -- 33
2019-10-15 15:00:00 23 8 Noroeste 30 Norte 0 -- -- 32
2019-10-15 14:00:00 22.4 8 Norte 26 Norte 0 -- -- 34
2019-10-15 13:00:00 20.4 9 Norte 24 Norte 0 -- -- 44
2019-10-15 12:00:00 18.8 8 Norte 24 Norte 0 -- -- 54
2019-10-15 11:00:00 16.7 10 Norte 25 Norte 0 -- -- 64
2019-10-15 10:00:00 14.6 4 Noroeste 13 Norte 0 -- -- 75
2019-10-15 09:00:00 13.1 3 Nordeste 20 Noroeste 0 -- -- 80
2019-10-15 08:00:00 13.4 7 Noroeste 27 Oeste 0 -- -- 79
2019-10-15 07:00:00 13.9 11 Noroeste 23 Noroeste 0 -- -- 78
2019-10-15 06:00:00 14.3 10 Noroeste 22 Oeste 0 -- -- 76
2019-10-15 05:00:00 15 7 Noroeste 13 Oeste 0 -- -- 76
2019-10-15 04:00:00 15.6 8 Noroeste 18 Oeste 0 -- -- 78
2019-10-15 03:00:00 16.2 12 Noroeste 23 Oeste 0 -- -- 76
2019-10-15 02:00:00 16.7 12 Oeste 26 Oeste 0 -- -- 76
2019-10-15 01:00:00 16.8 10 Noroeste 23 Oeste 0 -- -- 75
2019-10-15 00:00:00 16.7 10 Noroeste 35 Oeste 0 -- -- 77
2019-10-14 23:00:00 18.1 8 Noroeste 21 Norte 0 -- -- 64
2019-10-14 22:00:00 18.7 12 Noroeste 27 Noroeste 0 -- -- 60
2019-10-14 21:00:00 19.4 4 Este 26 Oeste 0 -- -- 54
2019-10-14 20:00:00 20.6 10 Oeste 31 Oeste 0 -- -- 46
2019-10-14 19:00:00 23 15 Noroeste 35 Oeste 0 -- -- 51
2019-10-14 18:00:00 25 17 Oeste 34 Oeste 0 -- -- 43
2019-10-14 17:00:00 25.2 13 Oeste 39 Oeste 0 -- -- 48
2019-10-14 16:00:00 25.7 9 Noroeste 34 Oeste 0 -- -- 48
2019-10-14 15:00:00 26 13 Noroeste 34 Oeste 0 -- -- 46
2019-10-14 14:00:00 23.8 9 Noroeste 31 Noroeste 0 -- -- 50
2019-10-14 13:00:00 23.3 12 Noroeste 34 Oeste 0 -- -- 55
2019-10-14 12:00:00 22.8 13 Noroeste 29 Oeste 0 -- -- 57
2019-10-14 11:00:00 21.3 6 Noroeste 16 Noroeste 0 -- -- 74
2019-10-14 10:00:00 19.8 3 Este 10 Oeste 0 -- -- 89
2019-10-14 09:00:00 18.4 3 Noroeste 10 Nordeste 0 -- -- 91
2019-10-14 08:00:00 18.8 5 Noroeste 10 Oeste 0 -- -- 91
2019-10-14 07:00:00 18.7 2 Norte 15 Sur 0 -- -- 93
2019-10-14 06:00:00 18.6 9 Sudeste 16 Sudeste 0 -- -- 93
2019-10-14 05:00:00 19 6 Sur 10 Sur 0 -- -- 91
2019-10-14 04:00:00 19.4 0 Calma 12 Nordeste 0 -- -- 90
2019-10-14 03:00:00 19.4 5 Este 10 Sudeste 0 -- -- 90
2019-10-14 02:00:00 19.5 5 Sudeste 13 Sur 0 -- -- 90
2019-10-14 01:00:00 19.9 6 Sudeste 15 Sur 0 -- -- 88
2019-10-14 00:00:00 20.1 9 Sur 20 Sur 0 -- -- 86
2019-10-13 23:00:00 20.4 5 Sudeste 13 Sur 0 -- -- 82
2019-10-13 22:00:00 21 4 Este 15 Sur 0 -- -- 79
2019-10-13 21:00:00 21.7 7 Sur 20 Sur 0 -- -- 76
2019-10-13 20:00:00 23.6 16 Sur 22 Sur 0 -- -- 64
2019-10-13 19:00:00 26.1 11 Sudeste 19 Sudeste 0 -- -- 49
2019-10-13 18:00:00 27.4 13 Sudeste 24 Sudeste 0 -- -- 46
2019-10-13 17:00:00 27.6 15 Sudeste 28 Sudeste 0 -- -- 48
2019-10-13 16:00:00 27.8 19 Sudeste 30 Sudeste 0 -- -- 49
2019-10-13 15:00:00 27.9 20 Sur 29 Sur 0 -- -- 49
2019-10-13 14:00:00 26.7 18 Sur 27 Sur 0 -- -- 59
2019-10-13 13:00:00 25.6 20 Sur 30 Sur 0 -- -- 65
2019-10-13 12:00:00 23.8 16 Sur 23 Sudeste 0 -- -- 72
2019-10-13 11:00:00 20.7 5 Sudeste 9 Sudeste 0 -- -- 81
2019-10-13 10:00:00 17.4 0 Calma 3 Sur 0 -- -- 91
2019-10-13 09:00:00 16.3 0 Calma 3 Noroeste 0 -- -- 93
2019-10-13 08:00:00 16.4 0 Calma 2 Noroeste 0 -- -- 92
2019-10-13 07:00:00 16.6 0 Calma 5 Oeste 0 -- -- 91
2019-10-13 06:00:00 17 0 Calma 4 Noroeste 0 -- -- 90
2019-10-13 05:00:00 17.4 0 Calma 6 Nordeste 0 -- -- 87
2019-10-13 04:00:00 17.9 3 Este 8 Este 0 -- -- 86
2019-10-13 03:00:00 18.2 5 Nordeste 8 Nordeste 0 -- -- 84
2019-10-13 02:00:00 18.8 0 Calma 5 Este 0 -- -- 83
2019-10-13 01:00:00 19.6 5 Este 7 Este 0 -- -- 81
2019-10-13 00:00:00 20.3 0 Calma 10 Sudeste 0 -- -- 82
2019-10-12 23:00:00 21 5 Sudeste 7 Este 0 -- -- 79
2019-10-12 22:00:00 21.8 5 Sudeste 9 Este 0 -- -- 71
2019-10-12 21:00:00 22.3 3 Sudeste 12 Este 0 -- -- 69
2019-10-12 20:00:00 23.1 8 Este 16 Nordeste 0 -- -- 68
2019-10-12 19:00:00 24.5 9 Sudeste 20 Sudeste 0 -- -- 63
2019-10-12 18:00:00 25.4 15 Sudeste 28 Sur 0 -- -- 58
2019-10-12 17:00:00 25.9 19 Sudeste 32 Sudeste 0 -- -- 53
2019-10-12 16:00:00 26.2 20 Sudeste 32 Sur 0 -- -- 49
2019-10-12 15:00:00 26.5 20 Sudeste 33 Sudeste 0 -- -- 51
2019-10-12 14:00:00 26.2 21 Sur 33 Sudeste 0 -- -- 53
2019-10-12 13:00:00 26 18 Sur 26 Sur 0 -- -- 58
2019-10-12 12:00:00 24.4 10 Sur 17 Sur 0 -- -- 67
2019-10-12 11:00:00 20.6 0 Calma 8 Norte 0 -- -- 84
2019-10-12 10:00:00 18.9 0 Calma 8 Oeste 0 -- -- 88
2019-10-12 09:00:00 18.6 6 Norte 11 Norte 0 -- -- 87
2019-10-12 08:00:00 18.4 3 Este 10 Sudoeste 0 -- -- 89
2019-10-12 07:00:00 18.5 4 Norte 11 Oeste 0 -- -- 87
2019-10-12 06:00:00 18.6 4 Sudeste 9 Este 0 -- -- 86
2019-10-12 05:00:00 18.9 0 Calma 6 Oeste 0 -- -- 84
2019-10-12 04:00:00 19.1 0 Calma 5 Este 0 -- -- 82
2019-10-12 03:00:00 19.5 0 Calma 5 Nordeste 0 -- -- 82
2019-10-12 02:00:00 19.7 3 Este 4 Sudeste 0 -- -- 82
2019-10-12 01:00:00 20.1 0 Calma 4 Nordeste 0 -- -- 81
2019-10-12 00:00:00 20.5 0 Calma 6 Este 0 -- -- 79
2019-10-11 23:00:00 20.7 4 Sudeste 10 Sudeste 0 -- -- 78
2019-10-11 22:00:00 21.5 4 Sur 6 Sur 0 -- -- 73
2019-10-11 21:00:00 21.9 6 Sur 10 Sudeste 0 -- -- 71
2019-10-11 20:00:00 22.9 7 Este 18 Este 0 -- -- 64
2019-10-11 19:00:00 23.8 11 Este 22 Sudeste 0 -- -- 62
2019-10-11 18:00:00 24.8 17 Sudeste 24 Sudeste 0 -- -- 54
2019-10-11 17:00:00 24.6 17 Sudeste 29 Sudeste 0 -- -- 54
2019-10-11 16:00:00 24.9 22 Sudeste 33 Sudeste 0 -- -- 52
2019-10-11 15:00:00 25.1 21 Sudeste 36 Sudeste 0 -- -- 49
2019-10-11 14:00:00 25.7 21 Sudeste 34 Sudeste 0 -- -- 48
2019-10-11 13:00:00 23.5 11 Sur 19 Sur 0 -- -- 62
2019-10-11 12:00:00 22.2 11 Sur 21 Sudeste 0 -- -- 69
2019-10-11 11:00:00 21.7 10 Sudeste 14 Sudeste 0 -- -- 75
2019-10-11 10:00:00 20.2 4 Sudeste 7 Sudeste 0 -- -- 83
2019-10-11 09:00:00 19.4 6 Sudeste 16 Sudeste 0 -- -- 83
2019-10-11 08:00:00 19.7 12 Sudeste 16 Sudeste 0 -- -- 82
2019-10-11 07:00:00 19.7 10 Sudeste 14 Sudeste 0 -- -- 85
2019-10-11 06:00:00 19.9 10 Sudeste 21 Sur 0 -- -- 84
2019-10-11 05:00:00 20.5 15 Sur 22 Sudeste 0 -- -- 84
2019-10-11 04:00:00 20.6 15 Sur 22 Sur 0 -- -- 84
2019-10-11 03:00:00 21 17 Sur 23 Sur 0 -- -- 81
2019-10-11 02:00:00 21.1 18 Sur 28 Sur 0 -- -- 81
2019-10-11 01:00:00 21.1 15 Sur 25 Sur 0 -- -- 82
2019-10-11 00:00:00 21.2 17 Sur 27 Sur 0 -- -- 80
2019-10-10 23:00:00 21.1 18 Sur 26 Sur 0 -- -- 81
2019-10-10 22:00:00 21 14 Sur 24 Sur 0 -- -- 82
2019-10-10 21:00:00 20.9 12 Sudeste 23 Sudeste 0 -- -- 81
2019-10-10 20:00:00 21.5 11 Sur 28 Sudeste 0 -- -- 76
2019-10-10 19:00:00 23.2 20 Sur 28 Sur 0 -- -- 68
2019-10-10 18:00:00 24.2 20 Sudeste 35 Sudeste 0 -- -- 63
2019-10-10 17:00:00 25.4 23 Sur 36 Sur 0 -- -- 59
2019-10-10 16:00:00 25.9 26 Sur 40 Sudeste 0 -- -- 58
2019-10-10 15:00:00 25.3 24 Sudeste 41 Sudeste 0 -- -- 60
2019-10-10 14:00:00 25.2 25 Sudeste 41 Sudeste 0 -- -- 60
2019-10-10 13:00:00 24.4 22 Sudeste 33 Sudeste 0 -- -- 63
2019-10-10 12:00:00 23.4 19 Sur 32 Sur 0 -- -- 68
2019-10-10 11:00:00 19.7 6 Sur 10 Sudeste 0 -- -- 77
2019-10-10 10:00:00 17.7 5 Sudeste 9 Sudeste 0 -- -- 75
2019-10-10 09:00:00 16.5 4 Nordeste 6 Este 0 -- -- 74
2019-10-10 08:00:00 15.9 0 Calma 5 Este 0 -- -- 72
2019-10-10 07:00:00 16 0 Calma 3 Sudeste 0 -- -- 71
2019-10-10 06:00:00 16.6 0 Calma 6 Este 0 -- -- 71
2019-10-10 05:00:00 16.7 3 Norte 5 Este 0 -- -- 69
2019-10-10 04:00:00 17.4 0 Calma 8 Nordeste 0 -- -- 68
2019-10-10 03:00:00 18 0 Calma 5 Este 0 -- -- 67
2019-10-10 02:00:00 18.8 3 Nordeste 7 Este 0 -- -- 65
2019-10-10 01:00:00 19.3 0 Calma 7 Sudeste 0 -- -- 63
2019-10-10 00:00:00 20.1 4 Sudeste 9 Sudeste 0 -- -- 61
2019-10-09 23:00:00 20.7 3 Sur 10 Sudeste 0 -- -- 64
2019-10-09 22:00:00 21.3 4 Sudeste 12 Sudeste 0 -- -- 62
2019-10-09 21:00:00 22.7 6 Sudeste 18 Sudeste 0 -- -- 55
2019-10-09 20:00:00 24.8 7 Sur 16 Sur 0 -- -- 50
2019-10-09 19:00:00 27.4 12 Sur 24 Sudeste 0 -- -- 42
2019-10-09 18:00:00 29 15 Sur 22 Sudeste 0 -- -- 37
2019-10-09 17:00:00 29.9 16 Sur 23 Sudoeste 0 -- -- 37
2019-10-09 16:00:00 30.4 15 Sur 22 Sur 0 -- -- 35
2019-10-09 15:00:00 29.4 10 Sur 21 Sur 0 -- -- 37
2019-10-09 14:00:00 28.1 14 Sur 22 Sudeste 0 -- -- 40
2019-10-09 13:00:00 26.5 14 Sur 18 Sur 0 -- -- 43
2019-10-09 12:00:00 24.9 10 Sudeste 17 Sudeste 0 -- -- 48
2019-10-09 11:00:00 21.5 4 Sudeste 6 Sudeste 0 -- -- 61
2019-10-09 10:00:00 17.5 2 Sudoeste 4 Sudoeste 0 -- -- 78
2019-10-09 09:00:00 15.9 0 Calma 4 Norte 0 -- -- 83
2019-10-09 08:00:00 16 0 Calma 4 Norte 0 -- -- 82
2019-10-09 07:00:00 16.5 0 Calma 5 Noroeste 0 -- -- 83
2019-10-09 06:00:00 16.6 4 Noroeste 6 Noroeste 0 -- -- 83
2019-10-09 05:00:00 16.9 2 Nordeste 5 Norte 0 -- -- 82
2019-10-09 04:00:00 17.2 3 Norte 5 Noroeste 0 -- -- 80
2019-10-09 03:00:00 17.9 0 Calma 3 Norte 0 -- -- 79
2019-10-09 02:00:00 18.6 0 Calma 6 Nordeste 0 -- -- 75
2019-10-09 01:00:00 19 0 Calma 4 Noroeste 0 -- -- 75
2019-10-09 00:00:00 20 0 Calma 8 Nordeste 0 -- -- 73
2019-10-08 23:00:00 20.5 4 Este 5 Este 0 -- -- 72
2019-10-08 22:00:00 21 3 Sur 11 Sur 0 -- -- 73
2019-10-08 21:00:00 21.6 7 Sur 14 Sur 0 -- -- 71
2019-10-08 20:00:00 22.7 10 Sur 18 Sur 0 -- -- 68
2019-10-08 19:00:00 24.7 14 Sudeste 25 Sur 0 -- -- 57
2019-10-08 18:00:00 26.3 16 Sudeste 27 Sur 0 -- -- 51
2019-10-08 17:00:00 26.5 18 Sudeste 28 Sudeste 0 -- -- 53
2019-10-08 16:00:00 26.6 21 Sudeste 33 Sudeste 0 -- -- 49
2019-10-08 15:00:00 26.1 20 Sudeste 33 Sudeste 0 -- -- 52
2019-10-08 14:00:00 26.4 22 Sudeste 39 Sudeste 0 -- -- 44
2019-10-08 13:00:00 26.3 22 Sudeste 35 Sudeste 0 -- -- 50
2019-10-08 12:00:00 25.2 18 Sur 27 Sur 0 -- -- 61
2019-10-08 11:00:00 22.6 12 Sur 21 Sur 0 -- -- 72
2019-10-08 10:00:00 20.1 3 Este 7 Este 0 -- -- 73
2019-10-08 09:00:00 17.9 3 Este 9 Nordeste 0 -- -- 75
2019-10-08 08:00:00 18 2 Sudeste 8 Norte 0 -- -- 73
2019-10-08 07:00:00 18.5 4 Este 13 Nordeste 0 -- -- 71
2019-10-08 06:00:00 19 11 Nordeste 14 Este 0 -- -- 71
2019-10-08 05:00:00 19.7 5 Este 10 Sudeste 0 -- -- 73
2019-10-08 04:00:00 19.6 4 Este 13 Sudeste 0 -- -- 70
2019-10-08 03:00:00 19.7 6 Sudeste 11 Sudeste 0 -- -- 62
2019-10-08 02:00:00 20 2 Este 5 Norte 0 -- -- 59
2019-10-08 01:00:00 21.2 0 Calma 5 Oeste 0 -- -- 58
2019-10-08 00:00:00 21.7 0 Calma 5 Noroeste 0 -- -- 56
2019-10-07 23:00:00 22.2 3 Nordeste 6 Nordeste 0 -- -- 56
2019-10-07 22:00:00 22.8 4 Sudeste 13 Sudeste 0 -- -- 57
2019-10-07 21:00:00 24.1 11 Sudeste 18 Sudeste 0 -- -- 53
2019-10-07 20:00:00 27.7 8 Sudeste 21 Sur 0 -- -- 42
2019-10-07 19:00:00 30.7 12 Sudeste 29 Sudeste 0 -- -- 31
2019-10-07 18:00:00 36.2 5 Noroeste 23 Norte 0 -- -- 22
2019-10-07 17:00:00 36.2 10 Norte 32 Norte 0 -- -- 21
2019-10-07 16:00:00 35.6 12 Norte 35 Noroeste 0 -- -- 23
2019-10-07 15:00:00 34.3 18 Norte 35 Norte 0 -- -- 24
2019-10-07 14:00:00 33.6 15 Noroeste 30 Norte 0 -- -- 24
2019-10-07 13:00:00 31.3 12 Noroeste 29 Oeste 0 -- -- 28
2019-10-07 12:00:00 29.3 13 Noroeste 27 Oeste 0 -- -- 30
2019-10-07 11:00:00 27.3 9 Noroeste 21 Norte 0 -- -- 36
2019-10-07 10:00:00 22.6 14 Noroeste 23 Noroeste 0 -- -- 44
2019-10-07 09:00:00 19.9 3 Oeste 22 Norte 0 -- -- 51
2019-10-07 08:00:00 20.3 9 Norte 17 Norte 0 -- -- 47
2019-10-07 07:00:00 21.1 14 Norte 27 Norte 0 -- -- 46
2019-10-07 06:00:00 20.6 14 Norte 21 Norte 0 -- -- 48
2019-10-07 05:00:00 20.7 10 Noroeste 20 Norte 0 -- -- 47
2019-10-07 04:00:00 21.6 13 Noroeste 20 Noroeste 0 -- -- 45
2019-10-07 03:00:00 22.2 8 Noroeste 13 Noroeste 0 -- -- 44
2019-10-07 02:00:00 21.8 10 Noroeste 20 Noroeste 0 -- -- 45
2019-10-07 01:00:00 22.3 12 Norte 19 Norte 0 -- -- 43
2019-10-07 00:00:00 19.8 7 Noroeste 15 Norte 0 -- -- 73
2019-10-06 23:00:00 19.7 2 Este 9 Sudeste 0 -- -- 79
2019-10-06 22:00:00 20.6 6 Sudeste 10 Sudeste 0 -- -- 74
2019-10-06 21:00:00 22.6 7 Sudeste 9 Sudeste 0 -- -- 67
2019-10-06 20:00:00 29.5 5 Noroeste 19 Oeste 0 -- -- 25
2019-10-06 19:00:00 33.1 11 Noroeste 22 Oeste 0 -- -- 24
2019-10-06 18:00:00 34.4 6 Noroeste 18 Noroeste 0 -- -- 27
2019-10-06 17:00:00 34.5 9 Noroeste 22 Noroeste 0 -- -- 25
2019-10-06 16:00:00 34.2 11 Oeste 28 Oeste 0 -- -- 27
2019-10-06 15:00:00 33 9 Oeste 22 Noroeste 0 -- -- 30
2019-10-06 14:00:00 32.3 9 Norte 29 Norte 0 -- -- 31
2019-10-06 13:00:00 30.7 13 Oeste 23 Noroeste 0 -- -- 37
2019-10-06 12:00:00 28.9 7 Noroeste 19 Oeste 0 -- -- 41
2019-10-06 11:00:00 26 9 Noroeste 21 Noroeste 0 -- -- 46
2019-10-06 10:00:00 22.7 8 Norte 19 Norte 0 -- -- 54
2019-10-06 09:00:00 20.1 3 Sudeste 21 Noroeste 0 -- -- 59
2019-10-06 08:00:00 20.4 16 Noroeste 24 Noroeste 0 -- -- 57
2019-10-06 07:00:00 20.8 15 Norte 27 Noroeste 0 -- -- 57
2019-10-06 06:00:00 21.1 15 Norte 21 Noroeste 0 -- -- 57
2019-10-06 05:00:00 21.5 14 Noroeste 23 Noroeste 0 -- -- 57
2019-10-06 04:00:00 21.8 10 Noroeste 18 Noroeste 0 -- -- 57
2019-10-06 03:00:00 22.3 9 Noroeste 18 Noroeste 0 -- -- 54
2019-10-06 02:00:00 22.6 9 Noroeste 26 Norte 0 -- -- 54
2019-10-06 01:00:00 23 14 Noroeste 25 Noroeste 0 -- -- 53
2019-10-06 00:00:00 24 10 Noroeste 25 Oeste 0 -- -- 51
2019-10-05 23:00:00 24.6 13 Noroeste 22 Noroeste 0 -- -- 50
2019-10-05 22:00:00 25.6 5 Noroeste 15 Oeste 0 -- -- 46
2019-10-05 21:00:00 26.9 8 Noroeste 18 Norte 0 -- -- 42
2019-10-05 20:00:00 28.3 11 Norte 24 Noroeste 0 -- -- 39
2019-10-05 19:00:00 30.9 11 Norte 23 Norte 0 -- -- 34
2019-10-05 18:00:00 32.4 13 Noroeste 30 Oeste 0 -- -- 35
2019-10-05 17:00:00 33.4 15 Noroeste 28 Oeste 0 -- -- 31
2019-10-05 16:00:00 33.5 9 Noroeste 22 Noroeste 0 -- -- 30
2019-10-05 15:00:00 32.1 3 Este 13 Sur 0 -- -- 29
2019-10-05 14:00:00 30.6 5 Sur 18 Noroeste 0 -- -- 34
2019-10-05 13:00:00 29.5 9 Noroeste 22 Noroeste 0 -- -- 37
2019-10-05 12:00:00 26.9 11 Noroeste 24 Oeste 0 -- -- 45
2019-10-05 11:00:00 24.5 13 Noroeste 24 Norte 0 -- -- 51
2019-10-05 10:00:00 21 6 Noroeste 16 Noroeste 0 -- -- 60
2019-10-05 09:00:00 18.8 7 Noroeste 21 Noroeste 0 -- -- 66
2019-10-05 08:00:00 18.6 12 Norte 25 Norte 0 -- -- 66
2019-10-05 07:00:00 19.3 16 Norte 25 Norte 0 -- -- 64
2019-10-05 06:00:00 19.7 16 Noroeste 23 Noroeste 0 -- -- 63
2019-10-05 05:00:00 19.8 10 Norte 22 Noroeste 0 -- -- 62
2019-10-05 04:00:00 20.3 6 Noroeste 17 Noroeste 0 -- -- 61
2019-10-05 03:00:00 20.6 8 Noroeste 17 Noroeste 0 -- -- 60
2019-10-05 02:00:00 21 10 Noroeste 16 Noroeste 0 -- -- 58
2019-10-05 01:00:00 20 2 Noroeste 8 Norte 0 -- -- 52
2019-10-05 00:00:00 20.6 3 Noroeste 5 Norte 0 -- -- 50
2019-10-04 23:00:00 21 0 Calma 5 Sudeste 0 -- -- 53
2019-10-04 22:00:00 22 4 Sudeste 10 Sudeste 0 -- -- 55
2019-10-04 21:00:00 24.6 7 Sudeste 9 Sudeste 0 -- -- 42
2019-10-04 20:00:00 26.9 9 Sudoeste 13 Sudoeste 0 -- -- 33
2019-10-04 19:00:00 29.4 12 Sur 21 Sur 0 -- -- 28
2019-10-04 18:00:00 30.2 14 Sudeste 26 Sur 0 -- -- 27
2019-10-04 17:00:00 31.3 18 Sur 26 Sur 0 -- -- 27
2019-10-04 16:00:00 31.5 12 Sudeste 21 Sur 0 -- -- 26
2019-10-04 15:00:00 31.6 14 Sur 24 Sur 0 -- -- 28
2019-10-04 14:00:00 31 13 Sur 22 Sur 0 -- -- 29
2019-10-04 13:00:00 29.3 6 Sur 12 Sur 0 -- -- 31
2019-10-04 12:00:00 26 4 Noroeste 13 Norte 0 -- -- 39
2019-10-04 11:00:00 23.1 6 Noroeste 17 Noroeste 0 -- -- 44
2019-10-04 10:00:00 20.4 4 Norte 17 Noroeste 0 -- -- 49
2019-10-04 09:00:00 18.2 3 Norte 18 Noroeste 0 -- -- 53
2019-10-04 08:00:00 18.5 8 Norte 27 Norte 0 -- -- 50
2019-10-04 07:00:00 19.2 16 Norte 24 Noroeste 0 -- -- 47
2019-10-04 06:00:00 19.9 13 Noroeste 26 Noroeste 0 -- -- 45
2019-10-04 05:00:00 20 14 Noroeste 23 Norte 0 -- -- 45
2019-10-04 04:00:00 20.1 15 Norte 23 Norte 0 -- -- 46
2019-10-04 03:00:00 20.7 11 Noroeste 23 Noroeste 0 -- -- 44
2019-10-04 02:00:00 21.3 3 Norte 16 Norte 0 -- -- 41
2019-10-04 01:00:00 21.9 9 Norte 15 Noroeste 0 -- -- 40
2019-10-04 00:00:00 23 4 Norte 20 Norte 0 -- -- 38
2019-10-03 23:00:00 23.1 7 Norte 28 Oeste 0 -- -- 39
2019-10-03 22:00:00 24.4 14 Noroeste 36 Noroeste 0 -- -- 37
2019-10-03 21:00:00 25.7 12 Noroeste 24 Oeste 0 -- -- 33
2019-10-03 20:00:00 27.5 6 Noroeste 20 Norte 0 -- -- 31
2019-10-03 19:00:00 29.7 8 Noroeste 28 Oeste 0 -- -- 29
2019-10-03 18:00:00 31.2 10 Noroeste 30 Oeste 0 -- -- 27
2019-10-03 17:00:00 31.4 11 Noroeste 32 Noroeste 0 -- -- 28
2019-10-03 16:00:00 31.5 9 Noroeste 31 Oeste 0 -- -- 29
2019-10-03 15:00:00 30.1 10 Noroeste 27 Noroeste 0 -- -- 32
2019-10-03 14:00:00 29.2 10 Noroeste 25 Oeste 0 -- -- 32
2019-10-03 13:00:00 27.5 11 Noroeste 28 Oeste 0 -- -- 38
2019-10-03 12:00:00 26 9 Noroeste 24 Noroeste 0 -- -- 43
2019-10-03 11:00:00 22.7 10 Noroeste 22 Noroeste 0 -- -- 49
2019-10-03 10:00:00 19.9 13 Noroeste 24 Noroeste 0 -- -- 54
2019-10-03 09:00:00 17.8 12 Norte 22 Norte 0 -- -- 58
2019-10-03 08:00:00 17.8 11 Norte 19 Norte 0 -- -- 57
2019-10-03 07:00:00 18.6 10 Noroeste 21 Noroeste 0 -- -- 55
2019-10-03 06:00:00 19 13 Noroeste 21 Noroeste 0 -- -- 53
2019-10-03 05:00:00 19.6 9 Norte 20 Norte 0 -- -- 51
2019-10-03 04:00:00 20 4 Norte 25 Norte 0 -- -- 50
2019-10-03 03:00:00 20.6 15 Noroeste 24 Noroeste 0 -- -- 48
2019-10-03 02:00:00 21.7 11 Noroeste 23 Noroeste 0 -- -- 45
2019-10-03 01:00:00 22.4 6 Norte 20 Nordeste 0 -- -- 43
2019-10-03 00:00:00 23.1 10 Norte 21 Norte 0 -- -- 40
2019-10-02 23:00:00 23.4 12 Norte 30 Oeste 0 -- -- 41
2019-10-02 22:00:00 24.2 9 Noroeste 27 Sudoeste 0 -- -- 37
2019-10-02 21:00:00 25.2 12 Noroeste 33 Noroeste 0 -- -- 34
2019-10-02 20:00:00 26.6 18 Noroeste 35 Oeste 0 -- -- 29
2019-10-02 19:00:00 28.5 12 Noroeste 34 Oeste 0 -- -- 24
2019-10-02 18:00:00 29.6 11 Noroeste 32 Norte 0 -- -- 27
2019-10-02 17:00:00 31 15 Noroeste 34 Norte 0 -- -- 26
2019-10-02 16:00:00 31.2 13 Noroeste 40 Noroeste 0 -- -- 26
2019-10-02 15:00:00 30.6 15 Noroeste 33 Oeste 0 -- -- 29
2019-10-02 14:00:00 29.5 16 Noroeste 37 Oeste 0 -- -- 29
2019-10-02 13:00:00 28.4 14 Noroeste 29 Oeste 0 -- -- 36
2019-10-02 12:00:00 26.2 12 Noroeste 28 Norte 0 -- -- 39
2019-10-02 11:00:00 23.9 9 Noroeste 20 Noroeste 0 -- -- 48
2019-10-02 10:00:00 21.9 5 Norte 22 Nordeste 0 -- -- 53
2019-10-02 09:00:00 19.8 9 Noroeste 20 Noroeste 0 -- -- 59
2019-10-02 08:00:00 19.7 9 Norte 21 Noroeste 0 -- -- 59
2019-10-02 07:00:00 20 11 Nordeste 21 Noroeste 0 -- -- 57
2019-10-02 06:00:00 20.6 10 Noroeste 29 Oeste 0 -- -- 58
2019-10-02 05:00:00 21.4 18 Oeste 30 Oeste 0 -- -- 57
2019-10-02 04:00:00 21.9 11 Oeste 21 Oeste 0 -- -- 55
2019-10-02 03:00:00 22.4 10 Oeste 17 Oeste 0 -- -- 54
2019-10-02 02:00:00 23.2 14 Oeste 39 Oeste 0 -- -- 52
2019-10-02 01:00:00 23.4 18 Noroeste 39 Noroeste 0 -- -- 52
2019-10-02 00:00:00 24 21 Noroeste 40 Oeste 0 -- -- 52
2019-10-01 23:00:00 24.9 17 Noroeste 35 Oeste 0 -- -- 51
2019-10-01 22:00:00 26.2 14 Noroeste 36 Oeste 0 -- -- 46
2019-10-01 21:00:00 27.8 10 Oeste 25 Oeste 0 -- -- 34
2019-10-01 20:00:00 28.9 15 Noroeste 30 Oeste 0 -- -- 31
2019-10-01 19:00:00 30.7 14 Noroeste 35 Noroeste 0 -- -- 26
2019-10-01 18:00:00 31.9 18 Noroeste 40 Oeste 0 -- -- 22
2019-10-01 17:00:00 33.2 22 Oeste 42 Oeste 0 -- -- 19
2019-10-01 16:00:00 33.8 17 Noroeste 33 Noroeste 0 -- -- 19
2019-10-01 15:00:00 33.7 14 Noroeste 40 Oeste 0 -- -- 21
2019-10-01 14:00:00 32.7 19 Noroeste 36 Oeste 0 -- -- 22
2019-10-01 13:00:00 32.3 15 Noroeste 29 Noroeste 0 -- -- 21
2019-10-01 12:00:00 29.6 10 Noroeste 21 Noroeste 0 -- -- 23
2019-10-01 11:00:00 27.1 8 Noroeste 21 Noroeste 0 -- -- 32
2019-10-01 10:00:00 24.3 8 Noroeste 24 Norte 0 -- -- 47
2019-10-01 09:00:00 20.7 14 Noroeste 23 Noroeste 0 -- -- 54
2019-10-01 08:00:00 19.3 5 Noroeste 14 Noroeste 0 -- -- 62
2019-10-01 07:00:00 17.9 2 Nordeste 4 Nordeste 0 -- -- 70
2019-10-01 06:00:00 18.3 2 Noroeste 6 Este 0 -- -- 70
2019-10-01 05:00:00 18.8 3 Sudeste 7 Este 0 -- -- 70
2019-10-01 04:00:00 20.1 0 Calma 6 Nordeste 0 -- -- 64
2019-10-01 03:00:00 20.5 4 Nordeste 9 Norte 0 -- -- 62
2019-10-01 02:00:00 21 4 Noroeste 6 Oeste 0 -- -- 62
2019-10-01 01:00:00 21.6 0 Calma 2 Sudeste 0 -- -- 66
2019-10-01 00:00:00 22.3 0 Calma 5 Noroeste 0 -- -- 65
2019-09-30 23:00:00 22.4 0 Calma 9 Sudeste 0 -- -- 67
2019-09-30 22:00:00 23.4 5 Este 9 Sudeste 0 -- -- 65
2019-09-30 21:00:00 25.7 2 Sudeste 15 Sudeste 0 -- -- 59
2019-09-30 20:00:00 28 11 Sudeste 17 Sudeste 0 -- -- 52
2019-09-30 19:00:00 29.6 12 Sudeste 23 Sur 0 -- -- 44
2019-09-30 18:00:00 31.9 15 Sur 26 Sur 0 -- -- 40
2019-09-30 17:00:00 33.8 16 Sur 25 Sur 0 -- -- 35
2019-09-30 16:00:00 34.4 13 Oeste 21 Oeste 0 -- -- 27
2019-09-30 15:00:00 33.8 12 Oeste 22 Sudoeste 0 -- -- 32
2019-09-30 14:00:00 32.1 7 Oeste 17 Oeste 0 -- -- 36
2019-09-30 13:00:00 30.6 6 Sudoeste 12 Sur 0 -- -- 39
2019-09-30 12:00:00 27.2 4 Sudeste 10 Sudeste 0 -- -- 52
2019-09-30 11:00:00 23.7 3 Sudoeste 8 Sudeste 0 -- -- 62
2019-09-30 10:00:00 21.4 2 Sudeste 8 Norte 0 -- -- 67
2019-09-30 09:00:00 19.1 2 Nordeste 6 Nordeste 0 -- -- 73
2019-09-30 08:00:00 18.6 2 Norte 10 Noroeste 0 -- -- 73
2019-09-30 07:00:00 18.8 3 Nordeste 7 Norte 0 -- -- 73
2019-09-30 06:00:00 18.5 4 Nordeste 6 Norte 0 -- -- 75
2019-09-30 05:00:00 18.1 0 Calma 5 Noroeste 0 -- -- 75
2019-09-30 04:00:00 18.2 0 Calma 7 Noroeste 0 -- -- 75
2019-09-30 03:00:00 18.7 0 Calma 4 Noroeste 0 -- -- 76
2019-09-30 02:00:00 19.5 2 Noroeste 4 Norte 0 -- -- 78
2019-09-30 01:00:00 19.8 0 Calma 2 Este 0 -- -- 78
2019-09-30 00:00:00 20.5 0 Calma 6 Sudeste 0 -- -- 81
2019-09-29 23:00:00 21.3 5 Sudeste 12 Sudeste 0 -- -- 78
2019-09-29 22:00:00 22.5 7 Sudeste 10 Sudeste 0 -- -- 74
2019-09-29 21:00:00 24 7 Sudeste 13 Sudeste 0 -- -- 66
2019-09-29 20:00:00 27 6 Sur 17 Sur 0 -- -- 46
2019-09-29 19:00:00 29 14 Sur 19 Sur 0 -- -- 45
2019-09-29 18:00:00 30.2 14 Sur 22 Sur 0 -- -- 44
2019-09-29 17:00:00 30.6 16 Sur 24 Sur 0 -- -- 46
2019-09-29 16:00:00 30.6 14 Sur 21 Sur 0 -- -- 42
2019-09-29 15:00:00 29.9 15 Sur 24 Sudoeste 0 -- -- 45
2019-09-29 14:00:00 28.3 16 Sur 24 Sur 0 -- -- 50
2019-09-29 13:00:00 26.9 17 Sur 24 Sur 0 -- -- 54
2019-09-29 12:00:00 25.5 15 Sur 20 Sur 0 -- -- 58
2019-09-29 11:00:00 22 5 Sudeste 8 Sudeste 0 -- -- 62
2019-09-29 10:00:00 19.1 2 Sur 4 Sur 0 -- -- 76
2019-09-29 09:00:00 17.1 0 Calma 2 Noroeste 0 -- -- 77
2019-09-29 08:00:00 16.9 0 Calma 4 Noroeste 0 -- -- 78
2019-09-29 07:00:00 16.5 4 Oeste 5 Oeste 0 -- -- 83
2019-09-29 06:00:00 16.6 0 Calma 4 Nordeste 0 -- -- 81
2019-09-29 05:00:00 17.2 0 Calma 2 Sudeste 0 -- -- 82
2019-09-29 04:00:00 17.9 0 Calma 2 Oeste 0 -- -- 84
2019-09-29 03:00:00 18.4 0 Calma 3 Sur 0 -- -- 82
2019-09-29 02:00:00 19.5 0 Calma 7 Sudeste 0 -- -- 80
2019-09-29 01:00:00 19.9 0 Calma 9 Sudeste 0 -- -- 78
2019-09-29 00:00:00 20.6 4 Sudeste 9 Sudeste 0 -- -- 74
2019-09-28 23:00:00 21.1 6 Sudeste 12 Sudeste 0 -- -- 70
2019-09-28 22:00:00 22.9 8 Sudeste 12 Sudeste 0 -- -- 59
2019-09-28 21:00:00 25 8 Sur 19 Sudoeste 0 -- -- 51
2019-09-28 20:00:00 26.9 10 Sur 16 Sur 0 -- -- 47
2019-09-28 19:00:00 29.3 11 Sur 18 Sur 0 -- -- 43
2019-09-28 18:00:00 30.2 16 Sur 28 Sur 0 -- -- 39
2019-09-28 17:00:00 30.5 23 Sur 30 Sur 0 -- -- 40
2019-09-28 16:00:00 30.8 20 Sur 30 Sudeste 0 -- -- 39
2019-09-28 15:00:00 30.5 21 Sur 26 Sur 0 -- -- 43
2019-09-28 14:00:00 30 17 Sur 26 Sur 0 -- -- 41
2019-09-28 13:00:00 28.7 18 Sur 26 Sur 0 -- -- 47
2019-09-28 12:00:00 26.6 5 Sur 10 Sur 0 -- -- 47
2019-09-28 11:00:00 23.6 4 Sudeste 8 Sudeste 0 -- -- 55
2019-09-28 10:00:00 20.3 3 Sur 5 Oeste 0 -- -- 68
2019-09-28 09:00:00 17.9 0 Calma 5 Norte 0 -- -- 69
2019-09-28 08:00:00 17.3 0 Calma 7 Norte 0 -- -- 68
2019-09-28 07:00:00 17.1 0 Calma 7 Noroeste 0 -- -- 79
2019-09-28 06:00:00 17.4 0 Calma 4 Norte 0 -- -- 89
2019-09-28 05:00:00 17.5 0 Calma 2 Sur 0 -- -- 88
2019-09-28 04:00:00 18.1 0 Calma 4 Oeste 0 -- -- 88
2019-09-28 03:00:00 18.6 0 Calma 2 Este 0 -- -- 88
2019-09-28 02:00:00 19.3 0 Calma 3 Noroeste 0 -- -- 89
2019-09-28 01:00:00 19.9 0 Calma 5 Este 0 -- -- 88
2019-09-28 00:00:00 20.2 3 Sudeste 9 Sudeste 0 -- -- 87
2019-09-27 23:00:00 20.8 6 Sudeste 10 Sudeste 0 -- -- 84
2019-09-27 22:00:00 22.3 6 Sudeste 10 Sudeste 0 -- -- 77
2019-09-27 21:00:00 24.3 6 Sudeste 15 Sudeste 0 -- -- 70
2019-09-27 20:00:00 26.8 9 Sudeste 17 Sudeste 0 -- -- 60
2019-09-27 19:00:00 29 14 Sur 23 Sur 0 -- -- 51
2019-09-27 18:00:00 30.3 17 Sur 22 Sur 0 -- -- 46
2019-09-27 17:00:00 31.4 15 Sur 23 Sur 0 -- -- 43
2019-09-27 16:00:00 31.4 15 Sur 23 Sur 0 -- -- 43
2019-09-27 15:00:00 30.4 13 Sur 22 Sudeste 0 -- -- 45
2019-09-27 14:00:00 29.8 13 Sur 23 Sur 0 -- -- 47
2019-09-27 13:00:00 28.7 15 Sur 19 Sudeste 0 -- -- 51
2019-09-27 12:00:00 26.1 5 Sur 10 Sudeste 0 -- -- 50
2019-09-27 11:00:00 22.5 3 Sur 7 Sudeste 0 -- -- 66
2019-09-27 10:00:00 19.1 0 Calma 5 Este 0 -- -- 77
2019-09-27 09:00:00 17.5 0 Calma 7 Noroeste 0 -- -- 84
2019-09-27 08:00:00 17.1 3 Norte 5 Norte 0 -- -- 85
2019-09-27 07:00:00 17.2 0 Calma 3 Nordeste 0 -- -- 85
2019-09-27 06:00:00 17.8 0 Calma 6 Noroeste 0 -- -- 84
2019-09-27 05:00:00 17.9 3 Noroeste 4 Noroeste 0 -- -- 80
2019-09-27 04:00:00 18.3 0 Calma 4 Noroeste 0 -- -- 78
2019-09-27 03:00:00 18.8 0 Calma 4 Nordeste 0 -- -- 76
2019-09-27 02:00:00 19.6 0 Calma 6 Nordeste 0 -- -- 74
2019-09-27 01:00:00 20.6 4 Este 9 Este 0 -- -- 73
2019-09-27 00:00:00 21.4 5 Este 9 Sudeste 0 -- -- 68
2019-09-26 23:00:00 22.1 4 Este 8 Sudeste 0 -- -- 70
2019-09-26 22:00:00 23.1 3 Sudeste 9 Sudeste 0 -- -- 64
2019-09-26 21:00:00 24.7 4 Sur 10 Sudoeste 0 -- -- 54
2019-09-26 20:00:00 26.2 9 Sur 14 Sur 0 -- -- 51
2019-09-26 19:00:00 28.5 12 Sur 21 Sur 0 -- -- 44
2019-09-26 18:00:00 29.5 14 Sur 25 Sur 0 -- -- 42
2019-09-26 17:00:00 30 15 Sur 25 Sur 0 -- -- 38
2019-09-26 16:00:00 29.2 15 Sudeste 26 Sudeste 0 -- -- 45
2019-09-26 15:00:00 29.1 17 Sur 28 Sur 0 -- -- 45
2019-09-26 14:00:00 28.4 18 Sur 28 Sur 0 -- -- 48
2019-09-26 13:00:00 27.7 16 Sur 26 Sur 0 -- -- 47
2019-09-26 12:00:00 26.4 13 Sudeste 19 Sudeste 0 -- -- 50
2019-09-26 11:00:00 23.5 3 Sudeste 6 Sudeste 0 -- -- 52
2019-09-26 10:00:00 19.8 0 Calma 6 Norte 0 -- -- 61
2019-09-26 09:00:00 17.4 2 Norte 8 Norte 0 -- -- 63
2019-09-26 08:00:00 17.4 3 Norte 7 Norte 0 -- -- 59
2019-09-26 07:00:00 17.9 0 Calma 9 Noroeste 0 -- -- 56
2019-09-26 06:00:00 18.8 4 Noroeste 7 Norte 0 -- -- 53
2019-09-26 05:00:00 20.3 0 Calma 16 Norte 0 -- -- 49
2019-09-26 04:00:00 21.7 8 Norte 22 Noroeste 0 -- -- 46
2019-09-26 03:00:00 22.3 15 Norte 21 Noroeste 0 -- -- 43
2019-09-26 02:00:00 22.7 12 Norte 20 Norte 0 -- -- 41
2019-09-26 01:00:00 23 10 Norte 18 Oeste 0 -- -- 39
2019-09-26 00:00:00 23.7 10 Noroeste 19 Noroeste 0 -- -- 38
2019-09-25 23:00:00 25 11 Noroeste 23 Oeste 0 -- -- 35
2019-09-25 22:00:00 26.1 10 Noroeste 21 Oeste 0 -- -- 35
2019-09-25 21:00:00 27.7 10 Noroeste 26 Noroeste 0 -- -- 35
2019-09-25 20:00:00 29.4 15 Norte 26 Norte 0 -- -- 32
2019-09-25 19:00:00 31.7 10 Noroeste 30 Oeste 0 -- -- 29
2019-09-25 18:00:00 32.9 9 Noroeste 32 Noroeste 0 -- -- 28
2019-09-25 17:00:00 33.5 12 Noroeste 31 Oeste 0 -- -- 28
2019-09-25 16:00:00 33.1 15 Noroeste 29 Oeste 0 -- -- 29
2019-09-25 15:00:00 32.1 15 Noroeste 34 Oeste 0 -- -- 29
2019-09-25 14:00:00 30.3 16 Oeste 31 Oeste 0 -- -- 38
2019-09-25 13:00:00 28 16 Oeste 34 Oeste 0 -- -- 49
2019-09-25 12:00:00 26.5 11 Noroeste 22 Oeste 0 -- -- 57
2019-09-25 11:00:00 24.4 10 Oeste 29 Oeste 0 -- -- 64
2019-09-25 10:00:00 23.1 12 Noroeste 22 Oeste 0 -- -- 68
2019-09-25 09:00:00 21.8 7 Noroeste 19 Noroeste 0 -- -- 72
2019-09-25 08:00:00 21.2 8 Noroeste 23 Noroeste 0 -- -- 71
2019-09-25 07:00:00 21.3 7 Noroeste 22 Oeste 0 -- -- 70
2019-09-25 06:00:00 22 6 Noroeste 20 Noroeste 0 -- -- 64
2019-09-25 05:00:00 22.6 11 Noroeste 25 Oeste 0 -- -- 58
2019-09-25 04:00:00 23 14 Noroeste 25 Oeste 0 -- -- 53
2019-09-25 03:00:00 23.9 10 Noroeste 26 Norte 0 -- -- 49
2019-09-25 02:00:00 24.3 8 Norte 22 Noroeste 0 -- -- 46
2019-09-25 01:00:00 25.3 9 Norte 26 Noroeste 0 -- -- 40
2019-09-25 00:00:00 25.5 13 Noroeste 26 Noroeste 0 -- -- 39
2019-09-24 23:00:00 23.3 5 Norte 15 Norte 0 -- -- 43
2019-09-24 22:00:00 23.8 5 Sudeste 8 Sudeste 0 -- -- 65
2019-09-24 21:00:00 26.7 0 Calma 10 Sudeste 0 -- -- 52
2019-09-24 20:00:00 31.4 6 Norte 18 Norte 0 -- -- 31
2019-09-24 19:00:00 34.1 9 Norte 22 Noroeste 0 -- -- 25
2019-09-24 18:00:00 34.2 2 Sudoeste 23 Oeste 0 -- -- 25
2019-09-24 17:00:00 34.8 10 Noroeste 25 Oeste 0 -- -- 25
2019-09-24 16:00:00 33.6 12 Oeste 27 Oeste 0 -- -- 28
2019-09-24 15:00:00 33.2 5 Norte 21 Norte 0 -- -- 29
2019-09-24 14:00:00 32 10 Norte 29 Norte 0 -- -- 31
2019-09-24 13:00:00 30.3 8 Norte 28 Oeste 0 -- -- 34
2019-09-24 12:00:00 26.7 9 Noroeste 18 Noroeste 0 -- -- 40
2019-09-24 11:00:00 22 4 Sudoeste 7 Sudoeste 0 -- -- 54
2019-09-24 10:00:00 18.4 0 Calma 5 Nordeste 0 -- -- 63
2019-09-24 09:00:00 16.3 3 Este 7 Norte 0 -- -- 68
2019-09-24 08:00:00 15.8 2 Oeste 4 Oeste 0 -- -- 68
2019-09-24 07:00:00 15.8 3 Nordeste 5 Norte 0 -- -- 66
2019-09-24 06:00:00 16 0 Calma 9 Noroeste 0 -- -- 66
2019-09-24 05:00:00 16.5 2 Noroeste 3 Oeste 0 -- -- 65
2019-09-24 04:00:00 17.2 0 Calma 4 Noroeste 0 -- -- 63
2019-09-24 03:00:00 17.6 0 Calma 9 Noroeste 0 -- -- 62
2019-09-24 02:00:00 18.5 0 Calma 7 Norte 0 -- -- 60
2019-09-24 01:00:00 19.4 0 Calma 3 Norte 0 -- -- 57
2019-09-24 00:00:00 20.8 3 Este 7 Este 0 -- -- 53
2019-09-23 23:00:00 22.1 2 Nordeste 5 Este 0 -- -- 49
2019-09-23 22:00:00 23.3 4 Este 13 Sur 0 -- -- 43
2019-09-23 21:00:00 24.2 3 Sur 11 Sur 0 -- -- 43
2019-09-23 20:00:00 26 10 Sur 17 Sur 0 -- -- 41
2019-09-23 19:00:00 28.2 14 Sur 21 Sur 0 -- -- 37
2019-09-23 18:00:00 29.3 15 Sur 23 Sur 0 -- -- 36
2019-09-23 17:00:00 30 14 Sur 23 Sudeste 0 -- -- 38
2019-09-23 16:00:00 30 11 Sudeste 19 Sudeste 0 -- -- 36
2019-09-23 15:00:00 29.4 5 Oeste 18 Sudoeste 0 -- -- 34
2019-09-23 14:00:00 28.4 8 Oeste 24 Noroeste 0 -- -- 39
2019-09-23 13:00:00 26.8 11 Noroeste 24 Noroeste 0 -- -- 45
2019-09-23 12:00:00 24.6 13 Noroeste 27 Oeste 0 -- -- 52
2019-09-23 11:00:00 23.1 10 Noroeste 30 Oeste 0 -- -- 57
2019-09-23 10:00:00 20.3 14 Noroeste 30 Noroeste 0 -- -- 64
2019-09-23 09:00:00 19.1 12 Noroeste 26 Oeste 0 -- -- 68
2019-09-23 08:00:00 18.4 13 Noroeste 30 Oeste 0 -- -- 70
2019-09-23 07:00:00 18.7 19 Noroeste 30 Noroeste 0 -- -- 68
2019-09-23 06:00:00 19.1 14 Noroeste 28 Oeste 0 -- -- 67
2019-09-23 05:00:00 19.4 17 Noroeste 30 Noroeste 0 -- -- 66
2019-09-23 04:00:00 19.5 10 Noroeste 22 Oeste 0 -- -- 65
2019-09-23 03:00:00 20.2 10 Noroeste 24 Oeste 0 -- -- 61
2019-09-23 02:00:00 20.7 12 Noroeste 27 Oeste 0 -- -- 58
2019-09-23 01:00:00 21 15 Noroeste 33 Noroeste 0 -- -- 58
2019-09-23 00:00:00 21.5 17 Noroeste 33 Oeste 0 -- -- 55
2019-09-22 23:00:00 22.1 15 Noroeste 28 Oeste 0 -- -- 49
2019-09-22 22:00:00 22.5 13 Noroeste 21 Noroeste 0 -- -- 47
2019-09-22 21:00:00 23.6 8 Noroeste 23 Noroeste 0 -- -- 45
2019-09-22 20:00:00 25.1 13 Noroeste 27 Noroeste 0 -- -- 38
2019-09-22 19:00:00 26.7 11 Noroeste 38 Noroeste 0 -- -- 36
2019-09-22 18:00:00 28.1 15 Noroeste 34 Noroeste 0 -- -- 36
2019-09-22 17:00:00 28.1 16 Noroeste 35 Noroeste 0 -- -- 47
2019-09-22 16:00:00 28.3 13 Noroeste 33 Noroeste 0 -- -- 52
2019-09-22 15:00:00 28.3 11 Noroeste 32 Oeste 0 -- -- 56
2019-09-22 14:00:00 27.9 16 Noroeste 28 Noroeste 0 -- -- 56
2019-09-22 13:00:00 26.2 5 Sur 12 Sur 0 -- -- 56
2019-09-22 12:00:00 24 3 Sudoeste 7 Este 0 -- -- 65
2019-09-22 11:00:00 21.7 3 Sudoeste 5 Sudoeste 0 -- -- 75
2019-09-22 10:00:00 19.5 0 Calma 3 Oeste 0 -- -- 82
2019-09-22 09:00:00 18.6 0 Calma 4 Nordeste 0 -- -- 85
2019-09-22 08:00:00 18.3 3 Este 10 Noroeste 0 -- -- 84
2019-09-22 07:00:00 18.7 0 Calma 7 Norte 0 -- -- 83
2019-09-22 06:00:00 19 5 Norte 8 Norte 0 -- -- 81
2019-09-22 05:00:00 19.6 0 Calma 12 Norte 0 -- -- 79
2019-09-22 04:00:00 20.4 9 Norte 14 Noroeste 0 -- -- 76
2019-09-22 03:00:00 20.7 4 Norte 10 Norte 0 -- -- 75
2019-09-22 02:00:00 21.2 0 Calma 8 Nordeste 0 -- -- 78
2019-09-22 01:00:00 21.6 0 Calma 9 Sudeste 0 -- -- 77
2019-09-22 00:00:00 21.9 5 Sudeste 7 Sudeste 0 -- -- 75
2019-09-21 23:00:00 22.5 3 Sur 7 Sudeste 0 -- -- 74
2019-09-21 22:00:00 23.3 4 Sur 10 Sur 0 -- -- 71
2019-09-21 21:00:00 23.9 2 Este 7 Sudeste 0 -- -- 67
2019-09-21 20:00:00 24.7 0 Calma 8 Este 0 -- -- 66
2019-09-21 19:00:00 25 7 Este 13 Este 0 -- -- 64
2019-09-21 18:00:00 25 9 Este 19 Este 0 -- -- 63
2019-09-21 17:00:00 25.9 10 Sudeste 20 Sudeste 0 -- -- 64
2019-09-21 16:00:00 26.8 13 Sur 22 Sur 0 -- -- 58
2019-09-21 15:00:00 27 10 Sur 20 Sudeste 0 -- -- 59
2019-09-21 14:00:00 26.8 10 Sur 18 Sur 0 -- -- 61
2019-09-21 13:00:00 25.1 10 Sur 18 Sur 0 -- -- 69
2019-09-21 12:00:00 23.2 12 Sudeste 17 Sur 0 -- -- 81
2019-09-21 11:00:00 22.2 5 Sudeste 10 Sur 0 -- -- 88
2019-09-21 10:00:00 21.4 0 Calma 8 Sur 0 -- -- 91
2019-09-21 09:00:00 20.6 0 Calma 4 Noroeste 0 -- -- 93
2019-09-21 08:00:00 20.4 0 Calma 5 Norte 0 -- -- 93
2019-09-21 07:00:00 20.7 4 Nordeste 5 Nordeste 0 -- -- 92
2019-09-21 06:00:00 21.1 0 Calma 5 Oeste 0 -- -- 90
2019-09-21 05:00:00 21.4 0 Calma 5 Norte 0 -- -- 89
2019-09-21 04:00:00 21.6 3 Sudoeste 5 Sudeste 0 -- -- 88
2019-09-21 03:00:00 21.8 6 Sudeste 10 Sur 0 -- -- 86
2019-09-21 02:00:00 22.1 6 Sudeste 16 Sudeste 0 -- -- 85
2019-09-21 01:00:00 22.5 9 Sudeste 20 Sudeste 0 -- -- 84
2019-09-21 00:00:00 22.6 13 Sudeste 23 Este 0 -- -- 83
2019-09-20 23:00:00 22.9 15 Sudeste 24 Sudeste 0 -- -- 80
2019-09-20 22:00:00 23 11 Sudeste 18 Este 0 -- -- 77
2019-09-20 21:00:00 23.3 13 Este 21 Este 0 -- -- 75
2019-09-20 20:00:00 23.8 11 Sudeste 20 Sur 0 -- -- 74
2019-09-20 19:00:00 24.2 13 Sur 24 Sudeste 0 -- -- 72
2019-09-20 18:00:00 24 13 Sudeste 24 Sur 0 -- -- 74
2019-09-20 17:00:00 24.3 12 Sur 30 Sudeste 0 -- -- 73
2019-09-20 16:00:00 24.4 19 Sudeste 43 Sudeste 0 -- -- 70
2019-09-20 15:00:00 24.9 27 Sudeste 42 Este 0 -- -- 68
2019-09-20 14:00:00 25.2 21 Sudeste 40 Sudeste 0 -- -- 70
2019-09-20 13:00:00 24.7 17 Sudeste 32 Sudeste 0 -- -- 73
2019-09-20 12:00:00 23.8 22 Sudeste 32 Sudeste 0 -- -- 76
2019-09-20 11:00:00 23 14 Sudeste 21 Sur 0 -- -- 81
2019-09-20 10:00:00 21.8 6 Sudeste 14 Sudeste 0 -- -- 84
2019-09-20 09:00:00 20.6 7 Sudeste 9 Sudeste 0 -- -- 88
2019-09-20 08:00:00 20.8 6 Sudeste 10 Sur 0 -- -- 88
2019-09-20 07:00:00 20.1 5 Sudeste 10 Sur 0 -- -- 89
2019-09-20 06:00:00 20 8 Sudeste 10 Sudeste 0 -- -- 90
2019-09-20 05:00:00 19.8 7 Sudeste 14 Sudeste 0 -- -- 87
2019-09-20 04:00:00 20.2 10 Sudeste 12 Sudeste 0 -- -- 84
2019-09-20 03:00:00 20.5 6 Sudeste 10 Sudeste 0 -- -- 82
2019-09-20 02:00:00 21 9 Sudeste 14 Sudeste 0 -- -- 80
2019-09-20 01:00:00 21.1 5 Sudeste 12 Sudeste 0 -- -- 80
2019-09-20 00:00:00 21.6 8 Sudeste 13 Sudeste 0 -- -- 80
2019-09-19 23:00:00 22.1 5 Sudeste 10 Sudeste 0 -- -- 73
2019-09-19 22:00:00 23.6 3 Sur 15 Sudoeste 0 -- -- 60
2019-09-19 21:00:00 24.4 8 Sur 14 Sur 0 -- -- 57
2019-09-19 20:00:00 26.1 10 Sur 20 Sur 0 -- -- 55
2019-09-19 19:00:00 28.2 14 Sur 24 Sur 0 -- -- 50
2019-09-19 18:00:00 29.2 18 Sur 25 Sur 0 -- -- 46
2019-09-19 17:00:00 30.4 13 Sur 23 Sudeste 0 -- -- 41
2019-09-19 16:00:00 29.9 12 Sudeste 28 Sudeste 0 -- -- 43
2019-09-19 15:00:00 29.4 19 Sudeste 27 Sur 0 -- -- 46
2019-09-19 14:00:00 29.4 15 Sudeste 27 Sur 0 -- -- 47
2019-09-19 13:00:00 28.5 13 Sur 21 Sur 0 -- -- 50
2019-09-19 12:00:00 25.9 5 Sur 11 Oeste 0 -- -- 58
2019-09-19 11:00:00 22.5 3 Oeste 14 Noroeste 0 -- -- 70
2019-09-19 10:00:00 20.8 6 Noroeste 14 Norte 0 -- -- 74
2019-09-19 09:00:00 19.1 6 Norte 20 Norte 0 -- -- 80
2019-09-19 08:00:00 18.6 8 Norte 21 Norte 0 -- -- 80
2019-09-19 07:00:00 18.9 10 Noroeste 17 Noroeste 0 -- -- 81
2019-09-19 06:00:00 19.1 3 Noroeste 8 Noroeste 0 -- -- 81
2019-09-19 05:00:00 19.4 2 Sudoeste 6 Noroeste 0 -- -- 82
2019-09-19 04:00:00 19.9 0 Calma 5 Norte 0 -- -- 81
2019-09-19 03:00:00 20.2 0 Calma 4 Norte 0 -- -- 82
2019-09-19 02:00:00 20.8 0 Calma 3 Sudoeste 0 -- -- 80
2019-09-19 01:00:00 21.5 2 Sudoeste 4 Este 0 -- -- 77
2019-09-19 00:00:00 22.4 0 Calma 8 Sudeste 0 -- -- 73
2019-09-18 23:00:00 22.9 5 Sudeste 10 Sudeste 0 -- -- 70
2019-09-18 22:00:00 24 4 Sudeste 12 Sudeste 0 -- -- 66
2019-09-18 21:00:00 25.5 7 Sudeste 17 Sudeste 0 -- -- 60
2019-09-18 20:00:00 27.1 8 Sur 17 Sur 0 -- -- 55
2019-09-18 19:00:00 28.8 14 Sur 23 Sur 0 -- -- 50
2019-09-18 18:00:00 31.2 14 Sur 19 Sur 0 -- -- 44
2019-09-18 17:00:00 30.9 11 Sur 22 Sur 0 -- -- 44
2019-09-18 16:00:00 31.2 11 Sur 21 Sudeste 0 -- -- 42
2019-09-18 15:00:00 30.7 6 Sur 18 Sudeste 0 -- -- 46
2019-09-18 14:00:00 29.9 6 Sur 12 Nordeste 0 -- -- 47
2019-09-18 13:00:00 27.7 8 Oeste 11 Oeste 0 -- -- 53
2019-09-18 12:00:00 25 3 Noroeste 8 Sur 0 -- -- 65
2019-09-18 11:00:00 22.5 3 Norte 7 Nordeste 0 -- -- 78
2019-09-18 10:00:00 20 2 Sur 5 Este 0 -- -- 89
2019-09-18 09:00:00 18.5 0 Calma 3 Noroeste 0 -- -- 93
2019-09-18 08:00:00 18.2 0 Calma 6 Norte 0 -- -- 91
2019-09-18 07:00:00 18.3 0 Calma 8 Norte 0 -- -- 92
2019-09-18 06:00:00 18.7 3 Norte 8 Norte 0 -- -- 92
2019-09-18 05:00:00 19.1 4 Noroeste 5 Noroeste 0 -- -- 93
2019-09-18 04:00:00 19.7 2 Este 4 Nordeste 0 -- -- 90
2019-09-18 03:00:00 20.1 0 Calma 4 Oeste 0 -- -- 90
2019-09-18 02:00:00 20.6 0 Calma 4 Norte 0 -- -- 88
2019-09-18 01:00:00 21.2 0 Calma 4 Este 0 -- -- 86
2019-09-18 00:00:00 22 2 Este 6 Este 0 -- -- 82
2019-09-17 23:00:00 22.5 2 Sudeste 4 Sur 0 -- -- 81
2019-09-17 22:00:00 23.1 2 Sudeste 10 Sur 0 -- -- 78
2019-09-17 21:00:00 24.3 6 Sur 12 Sudeste 0 -- -- 73